sensor_id;sensor_type;location;lat;lon;timestamp;pressure;altitude;pressure_sealevel;temperature;humidity
72486;BME280;60509;47.308;-122.428;2023-02-22T07:34:49;98949.90;;;-4.38;50.91
72486;BME280;60509;47.308;-122.428;2023-02-22T07:38:06;98952.98;;;-5.12;51.45
72486;BME280;60509;47.308;-122.428;2023-02-22T07:55:03;98961.65;;;-5.32;49.23
72486;BME280;60509;47.308;-122.428;2023-02-22T08:02:20;98962.56;;;-3.95;48.36
72486;BME280;60509;47.308;-122.428;2023-02-22T08:04:45;98964.53;;;-7.45;48.42
72486;BME280;60509;47.308;-122.428;2023-02-22T08:07:10;98963.61;;;-4.72;46.74
72486;BME280;60509;47.308;-122.428;2023-02-22T08:11:13;98967.70;;;-3.92;46.43
72486;BME280;60509;47.308;-122.428;2023-02-22T08:15:39;98973.05;;;-4.87;49.88
72486;BME280;60509;47.308;-122.428;2023-02-22T08:34:52;98967.07;;;-5.56;53.78
72486;BME280;60509;47.308;-122.428;2023-02-22T10:19:03;98984.98;;;-5.66;49.70
72486;BME280;60509;47.308;-122.428;2023-02-22T10:26:15;98985.87;;;-5.60;49.66
72486;BME280;60509;47.308;-122.428;2023-02-22T10:28:36;98980.19;;;-9.06;49.08
72486;BME280;60509;47.308;-122.428;2023-02-22T10:30:59;98977.33;;;-6.58;47.11
72486;BME280;60509;47.308;-122.428;2023-02-22T10:33:22;98977.87;;;-8.44;46.82
72486;BME280;60509;47.308;-122.428;2023-02-22T10:35:46;98978.91;;;-9.20;46.22
72486;BME280;60509;47.308;-122.428;2023-02-22T10:38:17;98976.41;;;-7.45;43.91
72486;BME280;60509;47.308;-122.428;2023-02-22T10:40:38;98977.89;;;-7.35;42.69
72486;BME280;60509;47.308;-122.428;2023-02-22T10:43:02;98979.02;;;-7.76;42.94
72486;BME280;60509;47.308;-122.428;2023-02-22T10:45:27;98982.19;;;-7.30;42.95
72486;BME280;60509;47.308;-122.428;2023-02-22T10:47:53;98982.66;;;-8.36;43.77
72486;BME280;60509;47.308;-122.428;2023-02-22T10:50:16;98981.58;;;-8.10;43.62
72486;BME280;60509;47.308;-122.428;2023-02-22T10:52:41;98977.87;;;-7.47;42.78
72486;BME280;60509;47.308;-122.428;2023-02-22T10:55:11;98977.49;;;-8.23;43.36
72486;BME280;60509;47.308;-122.428;2023-02-22T10:57:32;98976.68;;;-7.50;43.21
72486;BME280;60509;47.308;-122.428;2023-02-22T10:59:56;98971.67;;;-7.55;42.56
72486;BME280;60509;47.308;-122.428;2023-02-22T11:02:24;98973.99;;;-6.95;41.50
72486;BME280;60509;47.308;-122.428;2023-02-22T11:04:48;98971.69;;;-7.60;41.74
72486;BME280;60509;47.308;-122.428;2023-02-22T11:07:19;98970.09;;;-8.80;44.18
72486;BME280;60509;47.308;-122.428;2023-02-22T11:09:54;98968.69;;;-8.05;43.34
72486;BME280;60509;47.308;-122.428;2023-02-22T11:12:10;98972.91;;;-7.74;43.17
72486;BME280;60509;47.308;-122.428;2023-02-22T11:14:28;98973.65;;;-7.97;43.28
72486;BME280;60509;47.308;-122.428;2023-02-22T11:16:53;98978.45;;;-5.89;41.69
72486;BME280;60509;47.308;-122.428;2023-02-22T11:19:19;98983.16;;;-8.06;43.21
72486;BME280;60509;47.308;-122.428;2023-02-22T11:21:42;98981.12;;;-7.53;42.21
72486;BME280;60509;47.308;-122.428;2023-02-22T11:24:09;98984.62;;;-7.49;42.64
72486;BME280;60509;47.308;-122.428;2023-02-22T11:26:39;98981.32;;;-8.07;43.34
72486;BME280;60509;47.308;-122.428;2023-02-22T11:28:57;98980.13;;;-8.28;43.60
72486;BME280;60509;47.308;-122.428;2023-02-22T11:31:24;98981.53;;;-8.46;43.96
72486;BME280;60509;47.308;-122.428;2023-02-22T11:33:52;98986.12;;;-4.49;43.59
72486;BME280;60509;47.308;-122.428;2023-02-22T11:36:30;98985.31;;;-4.74;44.78
72486;BME280;60509;47.308;-122.428;2023-02-22T11:38:54;98987.31;;;-5.02;46.86
72486;BME280;60509;47.308;-122.428;2023-02-22T11:41:13;98987.42;;;-5.57;48.11
72486;BME280;60509;47.308;-122.428;2023-02-22T11:43:31;98987.32;;;-5.18;48.14
72486;BME280;60509;47.308;-122.428;2023-02-22T11:46:01;98987.84;;;-5.01;48.39
72486;BME280;60509;47.308;-122.428;2023-02-22T11:48:23;98992.80;;;-5.72;49.21
72486;BME280;60509;47.308;-122.428;2023-02-22T11:50:57;98994.00;;;-5.17;48.51
72486;BME280;60509;47.308;-122.428;2023-02-22T11:53:26;98991.74;;;-5.44;48.71
72486;BME280;60509;47.308;-122.428;2023-02-22T11:55:46;98987.61;;;-4.77;47.86
72486;BME280;60509;47.308;-122.428;2023-02-22T11:58:28;98989.71;;;-3.77;45.73
72486;BME280;60509;47.308;-122.428;2023-02-22T12:00:39;98991.79;;;-4.07;46.56
72486;BME280;60509;47.308;-122.428;2023-02-22T12:03:27;98993.13;;;-3.31;46.33
72486;BME280;60509;47.308;-122.428;2023-02-22T12:05:52;98993.35;;;-1.69;45.13
72486;BME280;60509;47.308;-122.428;2023-02-22T12:08:14;98993.38;;;-1.87;46.42
72486;BME280;60509;47.308;-122.428;2023-02-22T12:10:43;98998.73;;;-3.32;49.80
72486;BME280;60509;47.308;-122.428;2023-02-22T12:13:16;99000.07;;;-2.78;49.59
72486;BME280;60509;47.308;-122.428;2023-02-22T12:15:34;99000.33;;;-3.74;50.20
72486;BME280;60509;47.308;-122.428;2023-02-22T12:18:00;99002.78;;;-2.79;48.77
72486;BME280;60509;47.308;-122.428;2023-02-22T12:20:23;99003.19;;;-3.36;49.19
72486;BME280;60509;47.308;-122.428;2023-02-22T12:22:53;99003.11;;;-2.52;47.93
72486;BME280;60509;47.308;-122.428;2023-02-22T12:25:18;99007.65;;;-4.38;50.16
72486;BME280;60509;47.308;-122.428;2023-02-22T12:27:41;99004.68;;;-3.37;48.82
72486;BME280;60509;47.308;-122.428;2023-02-22T12:30:08;99000.59;;;-2.26;47.43
72486;BME280;60509;47.308;-122.428;2023-02-22T12:32:34;98999.25;;;-2.15;47.74
72486;BME280;60509;47.308;-122.428;2023-02-22T12:34:58;98999.92;;;-3.63;49.73
72486;BME280;60509;47.308;-122.428;2023-02-22T12:37:23;99004.23;;;-3.90;50.37
72486;BME280;60509;47.308;-122.428;2023-02-22T12:39:53;99001.50;;;-3.79;49.09
72486;BME280;60509;47.308;-122.428;2023-02-22T12:42:15;99000.03;;;-4.09;49.11
72486;BME280;60509;47.308;-122.428;2023-02-22T12:44:39;99000.49;;;-4.39;49.19
72486;BME280;60509;47.308;-122.428;2023-02-22T12:47:05;99004.10;;;-4.80;49.91
72486;BME280;60509;47.308;-122.428;2023-02-22T12:49:33;99002.66;;;-3.96;48.89
72486;BME280;60509;47.308;-122.428;2023-02-22T12:51:59;99004.20;;;-3.72;48.13
72486;BME280;60509;47.308;-122.428;2023-02-22T12:54:27;99006.77;;;-3.92;48.97
72486;BME280;60509;47.308;-122.428;2023-02-22T12:56:53;99013.40;;;-2.24;49.47
72486;BME280;60509;47.308;-122.428;2023-02-22T12:59:17;99015.85;;;-4.00;52.30
72486;BME280;60509;47.308;-122.428;2023-02-22T13:01:41;99014.57;;;-5.54;53.96
72486;BME280;60509;47.308;-122.428;2023-02-22T13:04:04;99016.61;;;-4.79;53.29
72486;BME280;60509;47.308;-122.428;2023-02-22T13:06:38;99018.02;;;-4.26;52.80
72486;BME280;60509;47.308;-122.428;2023-02-22T13:09:11;99018.73;;;-4.70;52.44
72486;BME280;60509;47.308;-122.428;2023-02-22T13:11:27;99021.80;;;-4.14;51.23
72486;BME280;60509;47.308;-122.428;2023-02-22T13:13:55;99025.44;;;-4.47;50.10
72486;BME280;60509;47.308;-122.428;2023-02-22T13:16:20;99031.78;;;-5.02;51.85
72486;BME280;60509;47.308;-122.428;2023-02-22T13:18:44;99034.22;;;-4.25;52.49
72486;BME280;60509;47.308;-122.428;2023-02-22T13:21:08;99037.64;;;-3.58;52.06
72486;BME280;60509;47.308;-122.428;2023-02-22T13:23:40;99033.81;;;-4.78;54.21
72486;BME280;60509;47.308;-122.428;2023-02-22T13:25:58;99037.20;;;-4.39;53.72
72486;BME280;60509;47.308;-122.428;2023-02-22T13:28:27;99035.40;;;-4.54;54.05
72486;BME280;60509;47.308;-122.428;2023-02-22T13:30:56;99035.70;;;-4.92;55.42
72486;BME280;60509;47.308;-122.428;2023-02-22T13:33:25;99030.95;;;-7.70;58.75
72486;BME280;60509;47.308;-122.428;2023-02-22T13:35:49;99033.08;;;-6.24;56.62
72486;BME280;60509;47.308;-122.428;2023-02-22T13:38:20;99037.24;;;-5.11;55.79
72486;BME280;60509;47.308;-122.428;2023-02-22T13:40:55;99042.47;;;-6.35;57.21
72486;BME280;60509;47.308;-122.428;2023-02-22T13:43:13;99043.74;;;-6.20;58.35
72486;BME280;60509;47.308;-122.428;2023-02-22T13:47:14;99042.64;;;-5.78;57.14
72486;BME280;60509;47.308;-122.428;2023-02-22T13:49:34;99049.30;;;-6.42;58.06
72486;BME280;60509;47.308;-122.428;2023-02-22T13:51:52;99041.91;;;-6.20;56.15
72486;BME280;60509;47.308;-122.428;2023-02-22T13:54:22;99045.09;;;-5.76;56.92
72486;BME280;60509;47.308;-122.428;2023-02-22T13:56:42;99045.89;;;-6.23;57.60
72486;BME280;60509;47.308;-122.428;2023-02-22T13:59:24;99048.30;;;-6.14;57.27
72486;BME280;60509;47.308;-122.428;2023-02-22T14:01:43;99050.38;;;-6.14;57.23
72486;BME280;60509;47.308;-122.428;2023-02-22T14:04:35;99053.21;;;-7.19;58.02
72486;BME280;60509;47.308;-122.428;2023-02-22T14:06:39;99050.22;;;-6.87;57.06
72486;BME280;60509;47.308;-122.428;2023-02-22T14:09:08;99049.47;;;-6.39;57.18
72486;BME280;60509;47.308;-122.428;2023-02-22T14:11:40;99053.37;;;-7.03;59.37
72486;BME280;60509;47.308;-122.428;2023-02-22T14:14:12;99059.01;;;-6.62;60.32
72486;BME280;60509;47.308;-122.428;2023-02-22T14:16:20;99071.20;;;-6.67;60.89
72486;BME280;60509;47.308;-122.428;2023-02-22T14:18:42;99063.70;;;-8.10;61.73
72486;BME280;60509;47.308;-122.428;2023-02-22T14:21:28;99065.11;;;-6.68;59.62
72486;BME280;60509;47.308;-122.428;2023-02-22T14:23:55;99066.62;;;-6.78;58.51
72486;BME280;60509;47.308;-122.428;2023-02-22T14:26:24;99073.67;;;-7.72;59.25
72486;BME280;60509;47.308;-122.428;2023-02-22T14:28:52;99072.90;;;-7.60;58.43
72486;BME280;60509;47.308;-122.428;2023-02-22T14:40:36;99086.95;;;-7.23;60.74
72486;BME280;60509;47.308;-122.428;2023-02-22T14:43:03;99089.88;;;-7.69;59.49
72486;BME280;60509;47.308;-122.428;2023-02-22T14:45:28;99096.53;;;-7.62;59.87
72486;BME280;60509;47.308;-122.428;2023-02-22T14:47:56;99097.98;;;-7.88;59.35
72486;BME280;60509;47.308;-122.428;2023-02-22T14:52:38;99099.13;;;-6.17;55.72
72486;BME280;60509;47.308;-122.428;2023-02-22T14:55:15;99097.52;;;-8.54;57.68
72486;BME280;60509;47.308;-122.428;2023-02-22T14:57:35;99111.34;;;-8.78;57.17
72486;BME280;60509;47.308;-122.428;2023-02-22T15:00:04;99114.10;;;-7.90;57.10
72486;BME280;60509;47.308;-122.428;2023-02-22T15:02:20;99111.70;;;-7.20;55.68
72486;BME280;60509;47.308;-122.428;2023-02-22T15:04:51;99117.59;;;-6.55;55.56
72486;BME280;60509;47.308;-122.428;2023-02-22T15:07:22;99124.34;;;-7.52;57.83
72486;BME280;60509;47.308;-122.428;2023-02-22T15:09:38;99120.99;;;-7.73;58.26
72486;BME280;60509;47.308;-122.428;2023-02-22T15:12:15;99115.39;;;-7.05;57.13
72486;BME280;60509;47.308;-122.428;2023-02-22T15:14:31;99112.62;;;-7.50;58.06
72486;BME280;60509;47.308;-122.428;2023-02-22T15:16:58;99113.94;;;-7.03;56.98
72486;BME280;60509;47.308;-122.428;2023-02-22T15:19:24;99117.58;;;-7.63;57.21
72486;BME280;60509;47.308;-122.428;2023-02-22T15:21:46;99120.67;;;-6.89;55.10
72486;BME280;60509;47.308;-122.428;2023-02-22T15:24:19;99114.02;;;-6.87;53.74
72486;BME280;60509;47.308;-122.428;2023-02-22T15:26:39;99120.90;;;-6.99;53.72
72486;BME280;60509;47.308;-122.428;2023-02-22T15:29:15;99119.01;;;-6.14;53.20
72486;BME280;60509;47.308;-122.428;2023-02-22T15:31:31;99124.14;;;-8.15;56.61
72486;BME280;60509;47.308;-122.428;2023-02-22T15:33:56;99119.76;;;-6.96;54.28
72486;BME280;60509;47.308;-122.428;2023-02-22T15:36:25;99125.77;;;-7.00;54.31
72486;BME280;60509;47.308;-122.428;2023-02-22T15:38:48;99131.11;;;-7.44;55.10
72486;BME280;60509;47.308;-122.428;2023-02-22T15:41:21;99131.20;;;-6.38;53.75
72486;BME280;60509;47.308;-122.428;2023-02-22T15:43:38;99136.73;;;-8.74;55.01
72486;BME280;60509;47.308;-122.428;2023-02-22T15:46:04;99137.15;;;-8.60;55.08
72486;BME280;60509;47.308;-122.428;2023-02-22T15:48:30;99141.36;;;-8.42;54.79
72486;BME280;60509;47.308;-122.428;2023-02-22T15:51:03;99147.46;;;-7.92;56.48
72486;BME280;60509;47.308;-122.428;2023-02-22T15:53:25;99147.19;;;-7.64;55.95
72486;BME280;60509;47.308;-122.428;2023-02-22T15:55:53;99151.07;;;-7.67;55.57
72486;BME280;60509;47.308;-122.428;2023-02-22T15:58:20;99150.07;;;-7.51;55.07
72486;BME280;60509;47.308;-122.428;2023-02-22T16:00:42;99154.29;;;-7.95;54.85
72486;BME280;60509;47.308;-122.428;2023-02-22T16:03:07;99158.97;;;-6.60;53.05
72486;BME280;60509;47.308;-122.428;2023-02-22T16:07:07;99160.33;;;-7.48;56.74
72486;BME280;60509;47.308;-122.428;2023-02-22T16:09:25;99163.83;;;-8.46;56.29
72486;BME280;60509;47.308;-122.428;2023-02-22T16:11:51;99162.45;;;-7.45;56.32
72486;BME280;60509;47.308;-122.428;2023-02-22T16:14:25;99152.82;;;-7.61;55.04
72486;BME280;60509;47.308;-122.428;2023-02-22T16:16:41;99152.24;;;-7.53;55.40
72486;BME280;60509;47.308;-122.428;2023-02-22T16:19:34;99154.72;;;-7.97;56.61
72486;BME280;60509;47.308;-122.428;2023-02-22T16:21:49;99149.26;;;-7.79;57.53
72486;BME280;60509;47.308;-122.428;2023-02-22T16:23:59;99151.79;;;-8.22;57.73
72486;BME280;60509;47.308;-122.428;2023-02-22T16:26:27;99147.89;;;-7.81;55.71
72486;BME280;60509;47.308;-122.428;2023-02-22T16:28:54;99149.29;;;-7.52;55.46
72486;BME280;60509;47.308;-122.428;2023-02-22T16:31:17;99154.79;;;-7.78;54.52
72486;BME280;60509;47.308;-122.428;2023-02-22T16:33:42;99154.63;;;-7.41;53.90
72486;BME280;60509;47.308;-122.428;2023-02-22T16:36:09;99156.39;;;-7.02;53.23
72486;BME280;60509;47.308;-122.428;2023-02-22T16:38:34;99171.51;;;-7.46;55.31
72486;BME280;60509;47.308;-122.428;2023-02-22T16:41:03;99166.71;;;-8.00;55.61
72486;BME280;60509;47.308;-122.428;2023-02-22T16:43:29;99173.30;;;-7.20;54.08
72486;BME280;60509;47.308;-122.428;2023-02-22T16:45:52;99173.49;;;-7.62;55.33
72486;BME280;60509;47.308;-122.428;2023-02-22T16:48:19;99171.53;;;-7.56;55.28
72486;BME280;60509;47.308;-122.428;2023-02-22T16:50:43;99171.80;;;-7.16;55.54
72486;BME280;60509;47.308;-122.428;2023-02-22T16:53:09;99169.40;;;-7.67;55.01
72486;BME280;60509;47.308;-122.428;2023-02-22T16:55:34;99167.79;;;-7.55;54.31
72486;BME280;60509;47.308;-122.428;2023-02-22T16:58:00;99167.55;;;-7.08;54.89
72486;BME280;60509;47.308;-122.428;2023-02-22T17:00:26;99173.33;;;-7.23;56.03
72486;BME280;60509;47.308;-122.428;2023-02-22T17:02:52;99174.68;;;-8.85;58.03
72486;BME280;60509;47.308;-122.428;2023-02-22T17:05:18;99173.89;;;-7.69;57.56
72486;BME280;60509;47.308;-122.428;2023-02-22T17:07:44;99173.60;;;-7.10;56.60
72486;BME280;60509;47.308;-122.428;2023-02-22T17:10:28;99175.64;;;-6.67;55.53
72486;BME280;60509;47.308;-122.428;2023-02-22T17:12:55;99176.64;;;-7.52;57.94
72486;BME280;60509;47.308;-122.428;2023-02-22T17:15:22;99174.71;;;-8.58;58.89
72486;BME280;60509;47.308;-122.428;2023-02-22T17:17:46;99177.30;;;-7.33;57.05
72486;BME280;60509;47.308;-122.428;2023-02-22T17:20:11;99176.63;;;-6.84;55.76
72486;BME280;60509;47.308;-122.428;2023-02-22T17:22:37;99180.15;;;-7.37;55.97
72486;BME280;60509;47.308;-122.428;2023-02-22T17:25:18;99180.76;;;-6.59;55.46
72486;BME280;60509;47.308;-122.428;2023-02-22T17:27:30;99179.35;;;-6.72;55.77
72486;BME280;60509;47.308;-122.428;2023-02-22T17:29:55;99185.00;;;-6.53;56.05
72486;BME280;60509;47.308;-122.428;2023-02-22T17:32:22;99188.71;;;-6.74;56.13
72486;BME280;60509;47.308;-122.428;2023-02-22T17:34:46;99180.62;;;-5.75;54.47
72486;BME280;60509;47.308;-122.428;2023-02-22T17:37:14;99183.88;;;-6.32;54.25
72486;BME280;60509;47.308;-122.428;2023-02-22T17:39:38;99183.53;;;-7.63;55.00
72486;BME280;60509;47.308;-122.428;2023-02-22T17:42:04;99175.75;;;-6.47;53.10
72486;BME280;60509;47.308;-122.428;2023-02-22T17:44:30;99178.35;;;-6.79;51.92
72486;BME280;60509;47.308;-122.428;2023-02-22T17:46:55;99176.26;;;-6.85;52.42
72486;BME280;60509;47.308;-122.428;2023-02-22T17:49:21;99177.78;;;-6.34;52.65
72486;BME280;60509;47.308;-122.428;2023-02-22T17:51:46;99183.09;;;-6.19;52.39
72486;BME280;60509;47.308;-122.428;2023-02-22T17:54:12;99182.76;;;-6.20;52.42
72486;BME280;60509;47.308;-122.428;2023-02-22T17:56:38;99180.14;;;-5.95;53.12
72486;BME280;60509;47.308;-122.428;2023-02-22T17:59:04;99180.77;;;-6.97;52.15
72486;BME280;60509;47.308;-122.428;2023-02-22T18:01:31;99184.02;;;-6.08;52.63
72486;BME280;60509;47.308;-122.428;2023-02-22T18:03:57;99189.91;;;-6.33;52.80
72486;BME280;60509;47.308;-122.428;2023-02-22T18:06:22;99187.50;;;-7.14;53.61
72486;BME280;60509;47.308;-122.428;2023-02-22T18:08:48;99183.26;;;-5.12;52.05
72486;BME280;60509;47.308;-122.428;2023-02-22T18:11:12;99186.87;;;-6.61;53.95
72486;BME280;60509;47.308;-122.428;2023-02-22T18:13:38;99176.85;;;-5.47;51.30
72486;BME280;60509;47.308;-122.428;2023-02-22T18:16:04;99177.30;;;-6.16;52.53
72486;BME280;60509;47.308;-122.428;2023-02-22T18:18:30;99177.93;;;-7.02;54.07
72486;BME280;60509;47.308;-122.428;2023-02-22T18:20:55;99172.32;;;-5.50;50.74
72486;BME280;60509;47.308;-122.428;2023-02-22T18:23:21;99168.38;;;-5.01;49.12
72486;BME280;60509;47.308;-122.428;2023-02-22T18:26:04;99176.58;;;-3.72;48.87
72486;BME280;60509;47.308;-122.428;2023-02-22T18:28:30;99172.77;;;-5.10;48.86
72486;BME280;60509;47.308;-122.428;2023-02-22T18:30:56;99175.95;;;-5.23;48.12
72486;BME280;60509;47.308;-122.428;2023-02-22T18:33:22;99178.09;;;-5.43;48.89
72486;BME280;60509;47.308;-122.428;2023-02-22T18:35:49;99174.61;;;-5.47;48.83
72486;BME280;60509;47.308;-122.428;2023-02-22T18:38:14;99177.09;;;-4.69;46.45
72486;BME280;60509;47.308;-122.428;2023-02-22T18:40:39;99175.96;;;-5.24;46.81
72486;BME280;60509;47.308;-122.428;2023-02-22T18:43:05;99177.09;;;-4.16;46.54
72486;BME280;60509;47.308;-122.428;2023-02-22T18:45:30;99172.03;;;-4.06;45.61
72486;BME280;60509;47.308;-122.428;2023-02-22T18:47:56;99172.20;;;-3.62;44.66
72486;BME280;60509;47.308;-122.428;2023-02-22T18:50:22;99171.01;;;-3.65;44.49
72486;BME280;60509;47.308;-122.428;2023-02-22T18:52:47;99174.15;;;-4.37;46.09
72486;BME280;60509;47.308;-122.428;2023-02-22T18:55:17;99174.03;;;-5.79;48.64
72486;BME280;60509;47.308;-122.428;2023-02-22T18:57:39;99177.05;;;-3.15;44.93
72486;BME280;60509;47.308;-122.428;2023-02-22T19:00:05;99174.65;;;-3.82;46.07
72486;BME280;60509;47.308;-122.428;2023-02-22T19:02:30;99179.64;;;-4.33;46.96
72486;BME280;60509;47.308;-122.428;2023-02-22T19:04:56;99173.27;;;-3.80;46.52
72486;BME280;60509;47.308;-122.428;2023-02-22T19:07:21;99173.50;;;-4.76;48.17
72486;BME280;60509;47.308;-122.428;2023-02-22T19:09:47;99176.10;;;-4.63;47.89
72486;BME280;60509;47.308;-122.428;2023-02-22T19:12:13;99183.27;;;-4.38;45.94
72486;BME280;60509;47.308;-122.428;2023-02-22T19:14:38;99185.54;;;-5.09;48.13
72486;BME280;60509;47.308;-122.428;2023-02-22T19:17:04;99185.62;;;-3.72;46.75
72486;BME280;60509;47.308;-122.428;2023-02-22T19:19:30;99191.54;;;-2.75;44.14
72486;BME280;60509;47.308;-122.428;2023-02-22T19:22:15;99181.30;;;-4.48;44.65
72486;BME280;60509;47.308;-122.428;2023-02-22T19:24:41;99189.32;;;-3.78;44.80
72486;BME280;60509;47.308;-122.428;2023-02-22T19:27:06;99178.02;;;-4.94;46.58
72486;BME280;60509;47.308;-122.428;2023-02-22T19:29:32;99177.83;;;-4.22;46.15
72486;BME280;60509;47.308;-122.428;2023-02-22T19:31:58;99179.08;;;-4.64;45.73
72486;BME280;60509;47.308;-122.428;2023-02-22T19:34:23;99176.71;;;-4.21;44.99
72486;BME280;60509;47.308;-122.428;2023-02-22T19:36:49;99178.15;;;-3.86;44.92
72486;BME280;60509;47.308;-122.428;2023-02-22T19:39:16;99182.46;;;-4.69;46.85
72486;BME280;60509;47.308;-122.428;2023-02-22T19:41:41;99182.55;;;-4.51;44.56
72486;BME280;60509;47.308;-122.428;2023-02-22T19:44:06;99181.44;;;-3.25;44.59
72486;BME280;60509;47.308;-122.428;2023-02-22T19:46:32;99179.97;;;-3.72;45.14
72486;BME280;60509;47.308;-122.428;2023-02-22T19:48:57;99178.65;;;-3.51;45.40
72486;BME280;60509;47.308;-122.428;2023-02-22T19:51:25;99175.64;;;-4.36;44.92
72486;BME280;60509;47.308;-122.428;2023-02-22T19:53:49;99174.15;;;-3.31;45.72
72486;BME280;60509;47.308;-122.428;2023-02-22T19:56:16;99170.06;;;-4.37;46.76
72486;BME280;60509;47.308;-122.428;2023-02-22T19:58:41;99167.65;;;-4.39;48.05
72486;BME280;60509;47.308;-122.428;2023-02-22T20:01:12;99164.68;;;-5.77;49.86
72486;BME280;60509;47.308;-122.428;2023-02-22T20:03:31;99163.39;;;-4.32;47.27
72486;BME280;60509;47.308;-122.428;2023-02-22T20:05:57;99163.72;;;-4.10;47.07
72486;BME280;60509;47.308;-122.428;2023-02-22T20:08:23;99158.22;;;-3.74;47.51
72486;BME280;60509;47.308;-122.428;2023-02-22T20:10:49;99163.76;;;-4.87;49.44
72486;BME280;60509;47.308;-122.428;2023-02-22T20:13:14;99161.39;;;-5.65;49.66
72486;BME280;60509;47.308;-122.428;2023-02-22T20:15:41;99153.27;;;-5.43;48.21
72486;BME280;60509;47.308;-122.428;2023-02-22T20:18:06;99155.68;;;-4.17;47.43
72486;BME280;60509;47.308;-122.428;2023-02-22T20:20:31;99152.83;;;-4.42;48.02
72486;BME280;60509;47.308;-122.428;2023-02-22T20:22:57;99155.16;;;-3.86;46.33
72486;BME280;60509;47.308;-122.428;2023-02-22T20:25:23;99153.87;;;-2.13;44.50
72486;BME280;60509;47.308;-122.428;2023-02-22T20:27:48;99147.61;;;-2.88;45.19
72486;BME280;60509;47.308;-122.428;2023-02-22T20:30:14;99147.20;;;-2.25;43.62
72486;BME280;60509;47.308;-122.428;2023-02-22T20:32:40;99147.41;;;-2.42;43.84
72486;BME280;60509;47.308;-122.428;2023-02-22T20:35:06;99143.24;;;-3.08;44.35
72486;BME280;60509;47.308;-122.428;2023-02-22T20:37:31;99141.66;;;-3.69;44.73
72486;BME280;60509;47.308;-122.428;2023-02-22T20:39:57;99145.14;;;-3.97;44.81
72486;BME280;60509;47.308;-122.428;2023-02-22T20:42:22;99143.43;;;-3.98;43.74
72486;BME280;60509;47.308;-122.428;2023-02-22T20:44:49;99137.65;;;-3.37;44.90
72486;BME280;60509;47.308;-122.428;2023-02-22T20:47:13;99140.28;;;-3.91;45.01
72486;BME280;60509;47.308;-122.428;2023-02-22T20:49:39;99144.23;;;-3.09;44.01
72486;BME280;60509;47.308;-122.428;2023-02-22T20:52:05;99148.16;;;-3.13;44.24
72486;BME280;60509;47.308;-122.428;2023-02-22T20:54:30;99137.92;;;-3.71;45.92
72486;BME280;60509;47.308;-122.428;2023-02-22T20:56:56;99142.40;;;-2.63;43.66
72486;BME280;60509;47.308;-122.428;2023-02-22T20:59:22;99138.02;;;-2.90;42.84
72486;BME280;60509;47.308;-122.428;2023-02-22T21:01:47;99140.63;;;-4.06;45.28
72486;BME280;60509;47.308;-122.428;2023-02-22T21:04:13;99132.55;;;-4.28;46.63
72486;BME280;60509;47.308;-122.428;2023-02-22T21:06:39;99135.39;;;-4.03;46.97
72486;BME280;60509;47.308;-122.428;2023-02-22T21:09:08;99131.60;;;-4.14;46.85
72486;BME280;60509;47.308;-122.428;2023-02-22T21:16:37;99133.36;;;-4.48;49.23
72486;BME280;60509;47.308;-122.428;2023-02-22T21:19:05;99129.84;;;-4.44;47.99
72486;BME280;60509;47.308;-122.428;2023-02-22T21:21:29;99124.17;;;-4.84;47.09
72486;BME280;60509;47.308;-122.428;2023-02-22T21:23:55;99129.42;;;-4.04;46.26
72486;BME280;60509;47.308;-122.428;2023-02-22T21:26:21;99121.26;;;-3.50;45.53
72486;BME280;60509;47.308;-122.428;2023-02-22T21:28:45;99120.90;;;-4.47;46.90
72486;BME280;60509;47.308;-122.428;2023-02-22T21:31:13;99122.42;;;-4.79;48.11
72486;BME280;60509;47.308;-122.428;2023-02-22T21:33:37;99118.79;;;-4.59;47.30
72486;BME280;60509;47.308;-122.428;2023-02-22T21:36:03;99120.71;;;-4.52;48.03
72486;BME280;60509;47.308;-122.428;2023-02-22T21:38:28;99121.79;;;-3.44;45.72
72486;BME280;60509;47.308;-122.428;2023-02-22T21:40:54;99124.24;;;-4.33;46.90
72486;BME280;60509;47.308;-122.428;2023-02-22T21:43:20;99118.84;;;-3.49;45.60
72486;BME280;60509;47.308;-122.428;2023-02-22T21:45:45;99119.75;;;-4.99;47.50
72486;BME280;60509;47.308;-122.428;2023-02-22T21:48:11;99115.54;;;-4.49;46.60
72486;BME280;60509;47.308;-122.428;2023-02-22T21:50:37;99110.92;;;-4.44;46.63
72486;BME280;60509;47.308;-122.428;2023-02-22T21:53:10;99108.52;;;-3.85;46.73
72486;BME280;60509;47.308;-122.428;2023-02-22T21:55:36;99111.85;;;-3.81;46.58
72486;BME280;60509;47.308;-122.428;2023-02-22T21:58:02;99110.81;;;-4.20;47.80
72486;BME280;60509;47.308;-122.428;2023-02-22T22:00:28;99111.18;;;-5.13;48.22
72486;BME280;60509;47.308;-122.428;2023-02-22T22:02:54;99112.67;;;-4.88;48.61
72486;BME280;60509;47.308;-122.428;2023-02-22T22:05:19;99106.21;;;-4.30;48.78
72486;BME280;60509;47.308;-122.428;2023-02-22T22:07:45;99108.37;;;-5.11;50.14
72486;BME280;60509;47.308;-122.428;2023-02-22T22:10:11;99109.93;;;-3.91;48.25
72486;BME280;60509;47.308;-122.428;2023-02-22T22:12:36;99115.14;;;-4.58;47.90
72486;BME280;60509;47.308;-122.428;2023-02-22T22:15:02;99108.69;;;-5.13;48.07
72486;BME280;60509;47.308;-122.428;2023-02-22T22:17:27;99110.02;;;-4.38;47.31
72486;BME280;60509;47.308;-122.428;2023-02-22T22:19:53;99116.06;;;-5.21;49.01
72486;BME280;60509;47.308;-122.428;2023-02-22T22:22:19;99111.84;;;-5.11;48.76
72486;BME280;60509;47.308;-122.428;2023-02-22T22:24:44;99111.37;;;-5.96;50.95
72486;BME280;60509;47.308;-122.428;2023-02-22T22:27:10;99110.62;;;-5.34;49.82
72486;BME280;60509;47.308;-122.428;2023-02-22T22:29:36;99108.68;;;-4.97;48.02
72486;BME280;60509;47.308;-122.428;2023-02-22T22:32:02;99107.28;;;-5.43;47.70
72486;BME280;60509;47.308;-122.428;2023-02-22T22:34:27;99107.41;;;-5.68;49.22
72486;BME280;60509;47.308;-122.428;2023-02-22T22:36:53;99105.43;;;-5.30;49.20
72486;BME280;60509;47.308;-122.428;2023-02-22T22:39:19;99105.94;;;-4.84;48.70
72486;BME280;60509;47.308;-122.428;2023-02-22T22:41:45;99105.64;;;-5.31;50.23
72486;BME280;60509;47.308;-122.428;2023-02-22T22:44:11;99105.11;;;-4.96;49.54